sensor_id;sensor_type;location;lat;lon;timestamp;P1;durP1;ratioP1;P2;durP2;ratioP2
7049;SDS011;22263;52.260;10.548;2023-02-26T00:00:51;0.67;;;0.67;;
7049;SDS011;22263;52.260;10.548;2023-02-26T00:03:22;0.50;;;0.50;;
7049;SDS011;22263;52.260;10.548;2023-02-26T00:05:57;0.70;;;0.70;;
7049;SDS011;22263;52.260;10.548;2023-02-26T00:08:32;0.60;;;0.60;;
7049;SDS011;22263;52.260;10.548;2023-02-26T00:11:04;0.77;;;0.77;;
7049;SDS011;22263;52.260;10.548;2023-02-26T00:13:36;0.50;;;0.50;;
7049;SDS011;22263;52.260;10.548;2023-02-26T00:16:13;0.60;;;0.60;;
7049;SDS011;22263;52.260;10.548;2023-02-26T00:18:54;0.73;;;0.73;;
7049;SDS011;22263;52.260;10.548;2023-02-26T00:21:28;0.70;;;0.70;;
7049;SDS011;22263;52.260;10.548;2023-02-26T00:23:59;0.60;;;0.60;;
7049;SDS011;22263;52.260;10.548;2023-02-26T00:26:32;0.63;;;0.63;;
7049;SDS011;22263;52.260;10.548;2023-02-26T00:29:06;0.50;;;0.50;;
7049;SDS011;22263;52.260;10.548;2023-02-26T00:31:37;0.60;;;0.60;;
7049;SDS011;22263;52.260;10.548;2023-02-26T00:34:09;0.80;;;0.80;;
7049;SDS011;22263;52.260;10.548;2023-02-26T00:36:44;0.63;;;0.63;;
7049;SDS011;22263;52.260;10.548;2023-02-26T00:39:24;0.50;;;0.50;;
7049;SDS011;22263;52.260;10.548;2023-02-26T00:42:03;0.60;;;0.60;;
7049;SDS011;22263;52.260;10.548;2023-02-26T00:44:34;0.80;;;0.80;;
7049;SDS011;22263;52.260;10.548;2023-02-26T00:47:06;0.70;;;0.70;;
7049;SDS011;22263;52.260;10.548;2023-02-26T00:49:46;0.50;;;0.50;;
7049;SDS011;22263;52.260;10.548;2023-02-26T00:52:27;0.60;;;0.60;;
7049;SDS011;22263;52.260;10.548;2023-02-26T00:55:04;0.60;;;0.60;;
7049;SDS011;22263;52.260;10.548;2023-02-26T00:57:35;0.67;;;0.67;;
7049;SDS011;22263;52.260;10.548;2023-02-26T01:00:06;0.40;;;0.40;;
7049;SDS011;22263;52.260;10.548;2023-02-26T01:02:37;0.60;;;0.60;;
7049;SDS011;22263;52.260;10.548;2023-02-26T01:05:09;0.70;;;0.70;;
7049;SDS011;22263;52.260;10.548;2023-02-26T01:07:43;0.60;;;0.60;;
7049;SDS011;22263;52.260;10.548;2023-02-26T01:10:20;0.47;;;0.47;;
7049;SDS011;22263;52.260;10.548;2023-02-26T01:12:51;0.80;;;0.80;;
7049;SDS011;22263;52.260;10.548;2023-02-26T01:15:22;0.50;;;0.50;;
7049;SDS011;22263;52.260;10.548;2023-02-26T01:17:54;0.70;;;0.70;;
7049;SDS011;22263;52.260;10.548;2023-02-26T01:20:34;0.80;;;0.80;;
7049;SDS011;22263;52.260;10.548;2023-02-26T01:23:12;0.80;;;0.80;;
7049;SDS011;22263;52.260;10.548;2023-02-26T01:25:45;0.50;;;0.50;;
7049;SDS011;22263;52.260;10.548;2023-02-26T01:28:20;0.50;;;0.50;;
7049;SDS011;22263;52.260;10.548;2023-02-26T01:30:50;0.60;;;0.60;;
7049;SDS011;22263;52.260;10.548;2023-02-26T01:33:27;0.70;;;0.70;;
7049;SDS011;22263;52.260;10.548;2023-02-26T01:36:02;0.63;;;0.63;;
7049;SDS011;22263;52.260;10.548;2023-02-26T01:38:41;0.80;;;0.80;;
7049;SDS011;22263;52.260;10.548;2023-02-26T01:41:28;0.90;;;0.90;;
7049;SDS011;22263;52.260;10.548;2023-02-26T01:44:08;0.70;;;0.70;;
7049;SDS011;22263;52.260;10.548;2023-02-26T01:46:47;0.70;;;0.70;;
7049;SDS011;22263;52.260;10.548;2023-02-26T01:49:25;0.70;;;0.70;;
7049;SDS011;22263;52.260;10.548;2023-02-26T01:51:56;0.50;;;0.50;;
7049;SDS011;22263;52.260;10.548;2023-02-26T01:54:30;0.77;;;0.77;;
7049;SDS011;22263;52.260;10.548;2023-02-26T01:57:01;0.70;;;0.70;;
7049;SDS011;22263;52.260;10.548;2023-02-26T01:59:35;0.77;;;0.77;;
7049;SDS011;22263;52.260;10.548;2023-02-26T02:02:07;0.90;;;0.90;;
7049;SDS011;22263;52.260;10.548;2023-02-26T02:04:38;0.50;;;0.50;;
7049;SDS011;22263;52.260;10.548;2023-02-26T02:07:09;0.50;;;0.50;;
7049;SDS011;22263;52.260;10.548;2023-02-26T02:09:41;0.60;;;0.60;;
7049;SDS011;22263;52.260;10.548;2023-02-26T02:12:17;0.80;;;0.80;;
7049;SDS011;22263;52.260;10.548;2023-02-26T02:15:01;0.77;;;0.77;;
7049;SDS011;22263;52.260;10.548;2023-02-26T02:17:37;0.70;;;0.70;;
7049;SDS011;22263;52.260;10.548;2023-02-26T02:20:28;0.50;;;0.50;;
7049;SDS011;22263;52.260;10.548;2023-02-26T02:23:20;0.70;;;0.70;;
7049;SDS011;22263;52.260;10.548;2023-02-26T02:29:02;0.60;;;0.60;;
7049;SDS011;22263;52.260;10.548;2023-02-26T02:31:51;0.90;;;0.90;;
7049;SDS011;22263;52.260;10.548;2023-02-26T02:34:28;0.50;;;0.50;;
7049;SDS011;22263;52.260;10.548;2023-02-26T02:37:05;0.60;;;0.60;;
7049;SDS011;22263;52.260;10.548;2023-02-26T02:39:43;0.60;;;0.60;;
7049;SDS011;22263;52.260;10.548;2023-02-26T02:42:18;0.60;;;0.60;;
7049;SDS011;22263;52.260;10.548;2023-02-26T02:44:52;0.60;;;0.60;;
7049;SDS011;22263;52.260;10.548;2023-02-26T02:47:29;0.70;;;0.70;;
7049;SDS011;22263;52.260;10.548;2023-02-26T02:50:04;0.60;;;0.60;;
7049;SDS011;22263;52.260;10.548;2023-02-26T02:52:40;0.60;;;0.60;;
7049;SDS011;22263;52.260;10.548;2023-02-26T02:55:15;0.60;;;0.60;;
7049;SDS011;22263;52.260;10.548;2023-02-26T02:57:51;0.50;;;0.50;;
7049;SDS011;22263;52.260;10.548;2023-02-26T03:00:28;0.70;;;0.70;;
7049;SDS011;22263;52.260;10.548;2023-02-26T03:03:05;0.50;;;0.50;;
7049;SDS011;22263;52.260;10.548;2023-02-26T03:05:42;0.60;;;0.60;;
7049;SDS011;22263;52.260;10.548;2023-02-26T03:08:12;0.50;;;0.50;;
7049;SDS011;22263;52.260;10.548;2023-02-26T03:10:45;0.70;;;0.70;;
7049;SDS011;22263;52.260;10.548;2023-02-26T03:13:17;0.70;;;0.70;;
7049;SDS011;22263;52.260;10.548;2023-02-26T03:15:59;0.70;;;0.70;;
7049;SDS011;22263;52.260;10.548;2023-02-26T03:18:44;0.60;;;0.60;;
7049;SDS011;22263;52.260;10.548;2023-02-26T03:21:24;0.40;;;0.40;;
7049;SDS011;22263;52.260;10.548;2023-02-26T03:24:02;0.60;;;0.60;;
7049;SDS011;22263;52.260;10.548;2023-02-26T03:26:39;0.50;;;0.50;;
7049;SDS011;22263;52.260;10.548;2023-02-26T03:29:15;0.67;;;0.67;;
7049;SDS011;22263;52.260;10.548;2023-02-26T03:31:53;0.60;;;0.60;;
7049;SDS011;22263;52.260;10.548;2023-02-26T03:34:29;0.60;;;0.60;;
7049;SDS011;22263;52.260;10.548;2023-02-26T03:37:03;0.70;;;0.70;;
7049;SDS011;22263;52.260;10.548;2023-02-26T03:39:38;0.73;;;0.73;;
7049;SDS011;22263;52.260;10.548;2023-02-26T03:42:14;0.60;;;0.60;;
7049;SDS011;22263;52.260;10.548;2023-02-26T03:44:55;0.53;;;0.53;;
7049;SDS011;22263;52.260;10.548;2023-02-26T03:47:28;0.77;;;0.77;;
7049;SDS011;22263;52.260;10.548;2023-02-26T03:50:03;0.60;;;0.60;;
7049;SDS011;22263;52.260;10.548;2023-02-26T03:52:46;0.80;;;0.80;;
7049;SDS011;22263;52.260;10.548;2023-02-26T03:55:43;0.80;;;0.80;;
7049;SDS011;22263;52.260;10.548;2023-02-26T03:58:34;0.70;;;0.70;;
7049;SDS011;22263;52.260;10.548;2023-02-26T04:01:29;0.50;;;0.50;;
7049;SDS011;22263;52.260;10.548;2023-02-26T04:04:03;0.70;;;0.70;;
7049;SDS011;22263;52.260;10.548;2023-02-26T04:06:40;0.80;;;0.80;;
7049;SDS011;22263;52.260;10.548;2023-02-26T04:09:11;0.83;;;0.83;;
7049;SDS011;22263;52.260;10.548;2023-02-26T04:11:41;0.70;;;0.70;;
7049;SDS011;22263;52.260;10.548;2023-02-26T04:14:12;0.70;;;0.70;;
7049;SDS011;22263;52.260;10.548;2023-02-26T04:16:42;0.53;;;0.53;;
7049;SDS011;22263;52.260;10.548;2023-02-26T04:19:13;0.60;;;0.60;;
7049;SDS011;22263;52.260;10.548;2023-02-26T04:21:45;0.70;;;0.70;;
7049;SDS011;22263;52.260;10.548;2023-02-26T04:24:15;0.70;;;0.70;;
7049;SDS011;22263;52.260;10.548;2023-02-26T04:26:45;0.60;;;0.60;;
7049;SDS011;22263;52.260;10.548;2023-02-26T04:29:15;0.57;;;0.57;;
7049;SDS011;22263;52.260;10.548;2023-02-26T04:31:44;0.77;;;0.77;;
7049;SDS011;22263;52.260;10.548;2023-02-26T04:34:14;0.70;;;0.70;;
7049;SDS011;22263;52.260;10.548;2023-02-26T04:36:47;0.70;;;0.70;;
7049;SDS011;22263;52.260;10.548;2023-02-26T04:39:18;0.60;;;0.60;;
7049;SDS011;22263;52.260;10.548;2023-02-26T04:41:48;0.53;;;0.53;;
7049;SDS011;22263;52.260;10.548;2023-02-26T04:44:18;0.70;;;0.70;;
7049;SDS011;22263;52.260;10.548;2023-02-26T04:46:48;0.50;;;0.50;;
7049;SDS011;22263;52.260;10.548;2023-02-26T04:49:19;0.70;;;0.70;;
7049;SDS011;22263;52.260;10.548;2023-02-26T04:51:51;0.60;;;0.60;;
7049;SDS011;22263;52.260;10.548;2023-02-26T04:54:21;0.50;;;0.50;;
7049;SDS011;22263;52.260;10.548;2023-02-26T04:56:51;0.50;;;0.50;;
7049;SDS011;22263;52.260;10.548;2023-02-26T04:59:21;0.80;;;0.80;;
7049;SDS011;22263;52.260;10.548;2023-02-26T05:01:51;0.53;;;0.53;;
7049;SDS011;22263;52.260;10.548;2023-02-26T05:04:20;0.70;;;0.70;;
7049;SDS011;22263;52.260;10.548;2023-02-26T05:06:56;0.73;;;0.73;;
7049;SDS011;22263;52.260;10.548;2023-02-26T05:09:26;0.50;;;0.50;;
7049;SDS011;22263;52.260;10.548;2023-02-26T05:11:56;0.70;;;0.70;;
7049;SDS011;22263;52.260;10.548;2023-02-26T05:14:26;0.70;;;0.70;;
7049;SDS011;22263;52.260;10.548;2023-02-26T05:16:56;0.70;;;0.70;;
7049;SDS011;22263;52.260;10.548;2023-02-26T05:19:26;0.80;;;0.80;;
7049;SDS011;22263;52.260;10.548;2023-02-26T05:21:58;0.80;;;0.80;;
7049;SDS011;22263;52.260;10.548;2023-02-26T05:24:28;0.80;;;0.80;;
7049;SDS011;22263;52.260;10.548;2023-02-26T05:26:59;0.50;;;0.50;;
7049;SDS011;22263;52.260;10.548;2023-02-26T05:29:29;0.70;;;0.70;;
7049;SDS011;22263;52.260;10.548;2023-02-26T05:32:01;0.70;;;0.70;;
7049;SDS011;22263;52.260;10.548;2023-02-26T05:34:31;0.60;;;0.60;;
7049;SDS011;22263;52.260;10.548;2023-02-26T05:37:03;0.60;;;0.60;;
7049;SDS011;22263;52.260;10.548;2023-02-26T05:39:33;0.80;;;0.80;;
7049;SDS011;22263;52.260;10.548;2023-02-26T05:42:03;0.70;;;0.70;;
7049;SDS011;22263;52.260;10.548;2023-02-26T05:44:32;0.70;;;0.70;;
7049;SDS011;22263;52.260;10.548;2023-02-26T05:47:03;0.63;;;0.63;;
7049;SDS011;22263;52.260;10.548;2023-02-26T05:49:32;0.70;;;0.70;;
7049;SDS011;22263;52.260;10.548;2023-02-26T05:52:05;0.60;;;0.60;;
7049;SDS011;22263;52.260;10.548;2023-02-26T05:54:34;0.70;;;0.70;;
7049;SDS011;22263;52.260;10.548;2023-02-26T05:57:04;0.70;;;0.70;;
7049;SDS011;22263;52.260;10.548;2023-02-26T05:59:33;0.77;;;0.77;;
7049;SDS011;22263;52.260;10.548;2023-02-26T06:02:04;0.63;;;0.63;;
7049;SDS011;22263;52.260;10.548;2023-02-26T06:04:34;0.70;;;0.70;;
7049;SDS011;22263;52.260;10.548;2023-02-26T06:07:06;0.70;;;0.70;;
7049;SDS011;22263;52.260;10.548;2023-02-26T06:09:37;0.70;;;0.70;;
7049;SDS011;22263;52.260;10.548;2023-02-26T06:12:07;0.50;;;0.50;;
7049;SDS011;22263;52.260;10.548;2023-02-26T06:14:36;0.67;;;0.67;;
7049;SDS011;22263;52.260;10.548;2023-02-26T06:17:06;0.70;;;0.70;;
7049;SDS011;22263;52.260;10.548;2023-02-26T06:19:36;0.70;;;0.70;;
7049;SDS011;22263;52.260;10.548;2023-02-26T06:22:08;0.70;;;0.70;;
7049;SDS011;22263;52.260;10.548;2023-02-26T06:24:38;0.70;;;0.70;;
7049;SDS011;22263;52.260;10.548;2023-02-26T06:27:07;0.50;;;0.50;;
7049;SDS011;22263;52.260;10.548;2023-02-26T06:29:37;0.60;;;0.60;;
7049;SDS011;22263;52.260;10.548;2023-02-26T06:32:06;0.70;;;0.70;;
7049;SDS011;22263;52.260;10.548;2023-02-26T06:34:36;0.67;;;0.67;;
7049;SDS011;22263;52.260;10.548;2023-02-26T06:37:08;0.70;;;0.70;;
7049;SDS011;22263;52.260;10.548;2023-02-26T06:39:38;0.70;;;0.70;;
7049;SDS011;22263;52.260;10.548;2023-02-26T06:42:07;0.90;;;0.90;;
7049;SDS011;22263;52.260;10.548;2023-02-26T06:44:37;0.80;;;0.80;;
7049;SDS011;22263;52.260;10.548;2023-02-26T06:47:07;0.80;;;0.80;;
7049;SDS011;22263;52.260;10.548;2023-02-26T06:49:36;0.70;;;0.70;;
7049;SDS011;22263;52.260;10.548;2023-02-26T06:52:08;0.50;;;0.50;;
7049;SDS011;22263;52.260;10.548;2023-02-26T06:54:38;0.80;;;0.80;;
7049;SDS011;22263;52.260;10.548;2023-02-26T06:57:08;0.70;;;0.70;;
7049;SDS011;22263;52.260;10.548;2023-02-26T06:59:38;0.80;;;0.80;;
7049;SDS011;22263;52.260;10.548;2023-02-26T07:02:08;0.70;;;0.70;;
7049;SDS011;22263;52.260;10.548;2023-02-26T07:04:44;0.70;;;0.70;;
7049;SDS011;22263;52.260;10.548;2023-02-26T07:07:16;0.70;;;0.70;;
7049;SDS011;22263;52.260;10.548;2023-02-26T07:09:46;0.70;;;0.70;;
7049;SDS011;22263;52.260;10.548;2023-02-26T07:12:16;0.77;;;0.77;;
7049;SDS011;22263;52.260;10.548;2023-02-26T07:14:45;0.50;;;0.50;;
7049;SDS011;22263;52.260;10.548;2023-02-26T07:17:15;0.70;;;0.70;;
7049;SDS011;22263;52.260;10.548;2023-02-26T07:19:48;0.70;;;0.70;;
7049;SDS011;22263;52.260;10.548;2023-02-26T07:22:22;0.80;;;0.80;;
7049;SDS011;22263;52.260;10.548;2023-02-26T07:24:51;0.70;;;0.70;;
7049;SDS011;22263;52.260;10.548;2023-02-26T07:27:21;0.50;;;0.50;;
7049;SDS011;22263;52.260;10.548;2023-02-26T07:29:51;0.73;;;0.73;;
7049;SDS011;22263;52.260;10.548;2023-02-26T07:32:20;0.63;;;0.63;;
7049;SDS011;22263;52.260;10.548;2023-02-26T07:34:50;0.63;;;0.63;;
7049;SDS011;22263;52.260;10.548;2023-02-26T07:37:22;0.80;;;0.80;;
7049;SDS011;22263;52.260;10.548;2023-02-26T07:39:54;0.87;;;0.87;;
7049;SDS011;22263;52.260;10.548;2023-02-26T07:42:23;0.70;;;0.70;;
7049;SDS011;22263;52.260;10.548;2023-02-26T07:44:53;0.60;;;0.60;;
7049;SDS011;22263;52.260;10.548;2023-02-26T07:47:23;0.70;;;0.70;;
7049;SDS011;22263;52.260;10.548;2023-02-26T07:49:52;0.60;;;0.60;;
7049;SDS011;22263;52.260;10.548;2023-02-26T07:52:24;0.73;;;0.73;;
7049;SDS011;22263;52.260;10.548;2023-02-26T07:54:54;0.50;;;0.50;;
7049;SDS011;22263;52.260;10.548;2023-02-26T07:57:24;0.60;;;0.60;;
7049;SDS011;22263;52.260;10.548;2023-02-26T07:59:53;0.60;;;0.60;;
7049;SDS011;22263;52.260;10.548;2023-02-26T08:02:23;0.60;;;0.60;;
7049;SDS011;22263;52.260;10.548;2023-02-26T08:04:53;0.50;;;0.50;;
7049;SDS011;22263;52.260;10.548;2023-02-26T08:07:25;0.52;;;0.52;;
7049;SDS011;22263;52.260;10.548;2023-02-26T08:09:55;0.50;;;0.50;;
7049;SDS011;22263;52.260;10.548;2023-02-26T08:12:24;0.50;;;0.50;;
7049;SDS011;22263;52.260;10.548;2023-02-26T08:14:54;0.50;;;0.50;;
7049;SDS011;22263;52.260;10.548;2023-02-26T08:17:23;0.60;;;0.60;;
7049;SDS011;22263;52.260;10.548;2023-02-26T08:19:53;0.50;;;0.50;;
7049;SDS011;22263;52.260;10.548;2023-02-26T08:22:25;0.70;;;0.70;;
7049;SDS011;22263;52.260;10.548;2023-02-26T08:24:55;0.60;;;0.60;;
7049;SDS011;22263;52.260;10.548;2023-02-26T08:27:24;0.45;;;0.45;;
7049;SDS011;22263;52.260;10.548;2023-02-26T08:29:54;0.50;;;0.50;;
7049;SDS011;22263;52.260;10.548;2023-02-26T08:32:24;0.50;;;0.50;;
7049;SDS011;22263;52.260;10.548;2023-02-26T08:34:54;0.50;;;0.50;;
7049;SDS011;22263;52.260;10.548;2023-02-26T08:37:29;0.60;;;0.60;;
7049;SDS011;22263;52.260;10.548;2023-02-26T08:39:59;0.50;;;0.50;;
7049;SDS011;22263;52.260;10.548;2023-02-26T08:42:30;0.50;;;0.50;;
7049;SDS011;22263;52.260;10.548;2023-02-26T08:44:59;0.60;;;0.60;;
7049;SDS011;22263;52.260;10.548;2023-02-26T08:47:29;0.50;;;0.50;;
7049;SDS011;22263;52.260;10.548;2023-02-26T08:50:05;0.50;;;0.50;;
7049;SDS011;22263;52.260;10.548;2023-02-26T08:52:37;0.40;;;0.40;;
7049;SDS011;22263;52.260;10.548;2023-02-26T08:55:08;0.40;;;0.40;;
7049;SDS011;22263;52.260;10.548;2023-02-26T08:57:38;0.50;;;0.50;;
7049;SDS011;22263;52.260;10.548;2023-02-26T09:00:08;0.50;;;0.50;;
7049;SDS011;22263;52.260;10.548;2023-02-26T09:02:42;0.40;;;0.40;;
7049;SDS011;22263;52.260;10.548;2023-02-26T09:05:12;0.40;;;0.40;;
7049;SDS011;22263;52.260;10.548;2023-02-26T09:07:45;0.40;;;0.40;;
7049;SDS011;22263;52.260;10.548;2023-02-26T09:10:15;0.50;;;0.50;;
7049;SDS011;22263;52.260;10.548;2023-02-26T09:12:45;0.40;;;0.40;;
7049;SDS011;22263;52.260;10.548;2023-02-26T09:15:15;0.40;;;0.40;;
7049;SDS011;22263;52.260;10.548;2023-02-26T09:17:46;0.50;;;0.50;;
7049;SDS011;22263;52.260;10.548;2023-02-26T09:20:17;0.47;;;0.47;;
7049;SDS011;22263;52.260;10.548;2023-02-26T09:22:49;0.43;;;0.43;;
7049;SDS011;22263;52.260;10.548;2023-02-26T09:25:19;0.40;;;0.40;;
7049;SDS011;22263;52.260;10.548;2023-02-26T09:27:49;0.30;;;0.30;;
7049;SDS011;22263;52.260;10.548;2023-02-26T09:30:19;0.38;;;0.38;;
7049;SDS011;22263;52.260;10.548;2023-02-26T09:32:49;0.38;;;0.38;;
7049;SDS011;22263;52.260;10.548;2023-02-26T09:35:19;0.40;;;0.40;;
7049;SDS011;22263;52.260;10.548;2023-02-26T09:37:51;0.30;;;0.30;;
7049;SDS011;22263;52.260;10.548;2023-02-26T09:40:23;0.40;;;0.40;;
7049;SDS011;22263;52.260;10.548;2023-02-26T09:43:04;0.40;;;0.40;;
7049;SDS011;22263;52.260;10.548;2023-02-26T09:45:44;0.40;;;0.40;;
7049;SDS011;22263;52.260;10.548;2023-02-26T09:48:17;0.40;;;0.40;;
7049;SDS011;22263;52.260;10.548;2023-02-26T09:50:50;0.40;;;0.40;;
7049;SDS011;22263;52.260;10.548;2023-02-26T09:53:26;0.40;;;0.40;;
7049;SDS011;22263;52.260;10.548;2023-02-26T09:56:00;0.40;;;0.40;;
7049;SDS011;22263;52.260;10.548;2023-02-26T09:58:36;0.50;;;0.50;;
7049;SDS011;22263;52.260;10.548;2023-02-26T10:01:08;0.40;;;0.40;;
7049;SDS011;22263;52.260;10.548;2023-02-26T10:03:55;0.40;;;0.40;;
7049;SDS011;22263;52.260;10.548;2023-02-26T10:06:37;0.40;;;0.40;;
7049;SDS011;22263;52.260;10.548;2023-02-26T10:09:23;0.50;;;0.50;;
7049;SDS011;22263;52.260;10.548;2023-02-26T10:12:07;0.40;;;0.40;;
7049;SDS011;22263;52.260;10.548;2023-02-26T10:14:41;0.50;;;0.50;;
7049;SDS011;22263;52.260;10.548;2023-02-26T10:17:19;0.50;;;0.50;;
7049;SDS011;22263;52.260;10.548;2023-02-26T10:19:55;0.40;;;0.40;;
7049;SDS011;22263;52.260;10.548;2023-02-26T10:22:30;0.40;;;0.40;;
7049;SDS011;22263;52.260;10.548;2023-02-26T10:25:08;0.40;;;0.40;;
7049;SDS011;22263;52.260;10.548;2023-02-26T10:27:47;0.50;;;0.50;;
7049;SDS011;22263;52.260;10.548;2023-02-26T10:30:27;0.40;;;0.40;;
7049;SDS011;22263;52.260;10.548;2023-02-26T10:33:06;0.30;;;0.30;;
7049;SDS011;22263;52.260;10.548;2023-02-26T10:35:44;0.30;;;0.30;;
7049;SDS011;22263;52.260;10.548;2023-02-26T10:38:21;0.32;;;0.32;;
7049;SDS011;22263;52.260;10.548;2023-02-26T10:40:57;0.30;;;0.30;;
7049;SDS011;22263;52.260;10.548;2023-02-26T10:43:31;0.50;;;0.50;;
7049;SDS011;22263;52.260;10.548;2023-02-26T10:46:09;0.40;;;0.40;;
7049;SDS011;22263;52.260;10.548;2023-02-26T10:48:56;0.50;;;0.50;;
7049;SDS011;22263;52.260;10.548;2023-02-26T10:51:39;0.50;;;0.50;;
7049;SDS011;22263;52.260;10.548;2023-02-26T10:54:12;0.40;;;0.40;;
7049;SDS011;22263;52.260;10.548;2023-02-26T10:56:47;0.40;;;0.40;;
7049;SDS011;22263;52.260;10.548;2023-02-26T10:59:17;0.50;;;0.50;;
7049;SDS011;22263;52.260;10.548;2023-02-26T11:01:47;0.40;;;0.40;;
7049;SDS011;22263;52.260;10.548;2023-02-26T11:04:19;0.50;;;0.50;;
7049;SDS011;22263;52.260;10.548;2023-02-26T11:06:52;0.40;;;0.40;;
7049;SDS011;22263;52.260;10.548;2023-02-26T11:09:24;0.40;;;0.40;;
7049;SDS011;22263;52.260;10.548;2023-02-26T11:12:03;0.40;;;0.40;;
7049;SDS011;22263;52.260;10.548;2023-02-26T11:14:34;0.32;;;0.32;;
7049;SDS011;22263;52.260;10.548;2023-02-26T11:17:06;0.40;;;0.40;;
7049;SDS011;22263;52.260;10.548;2023-02-26T11:19:40;0.40;;;0.40;;
7049;SDS011;22263;52.260;10.548;2023-02-26T11:22:15;0.40;;;0.40;;
7049;SDS011;22263;52.260;10.548;2023-02-26T11:24:45;0.30;;;0.30;;
7049;SDS011;22263;52.260;10.548;2023-02-26T11:27:20;0.40;;;0.40;;
7049;SDS011;22263;52.260;10.548;2023-02-26T11:29:54;0.32;;;0.32;;
7049;SDS011;22263;52.260;10.548;2023-02-26T11:32:28;0.40;;;0.40;;
7049;SDS011;22263;52.260;10.548;2023-02-26T11:35:00;0.40;;;0.40;;
7049;SDS011;22263;52.260;10.548;2023-02-26T11:37:33;0.22;;;0.22;;
7049;SDS011;22263;52.260;10.548;2023-02-26T11:40:06;0.30;;;0.30;;
7049;SDS011;22263;52.260;10.548;2023-02-26T11:42:47;0.30;;;0.30;;
7049;SDS011;22263;52.260;10.548;2023-02-26T11:45:21;0.45;;;0.45;;
7049;SDS011;22263;52.260;10.548;2023-02-26T11:47:52;0.30;;;0.30;;
7049;SDS011;22263;52.260;10.548;2023-02-26T11:50:35;0.40;;;0.40;;
7049;SDS011;22263;52.260;10.548;2023-02-26T11:53:15;0.40;;;0.40;;
7049;SDS011;22263;52.260;10.548;2023-02-26T11:55:50;0.40;;;0.40;;
7049;SDS011;22263;52.260;10.548;2023-02-26T11:58:24;0.40;;;0.40;;
7049;SDS011;22263;52.260;10.548;2023-02-26T12:00:58;0.40;;;0.40;;
7049;SDS011;22263;52.260;10.548;2023-02-26T12:03:30;0.40;;;0.40;;
7049;SDS011;22263;52.260;10.548;2023-02-26T12:06:02;0.30;;;0.30;;
7049;SDS011;22263;52.260;10.548;2023-02-26T12:08:33;0.40;;;0.40;;
7049;SDS011;22263;52.260;10.548;2023-02-26T12:11:08;0.30;;;0.30;;
7049;SDS011;22263;52.260;10.548;2023-02-26T12:13:52;0.32;;;0.32;;
7049;SDS011;22263;52.260;10.548;2023-02-26T12:16:34;0.38;;;0.38;;
7049;SDS011;22263;52.260;10.548;2023-02-26T12:19:13;0.20;;;0.20;;
7049;SDS011;22263;52.260;10.548;2023-02-26T12:21:53;0.30;;;0.30;;
7049;SDS011;22263;52.260;10.548;2023-02-26T12:24:37;0.30;;;0.30;;
7049;SDS011;22263;52.260;10.548;2023-02-26T12:27:20;0.25;;;0.25;;
7049;SDS011;22263;52.260;10.548;2023-02-26T12:30:05;0.30;;;0.30;;
7049;SDS011;22263;52.260;10.548;2023-02-26T12:32:50;0.30;;;0.30;;
7049;SDS011;22263;52.260;10.548;2023-02-26T12:35:35;0.40;;;0.40;;
7049;SDS011;22263;52.260;10.548;2023-02-26T12:38:18;0.30;;;0.30;;
7049;SDS011;22263;52.260;10.548;2023-02-26T12:41:01;0.30;;;0.30;;
7049;SDS011;22263;52.260;10.548;2023-02-26T12:43:45;0.32;;;0.32;;
7049;SDS011;22263;52.260;10.548;2023-02-26T12:46:25;0.30;;;0.30;;
7049;SDS011;22263;52.260;10.548;2023-02-26T12:49:10;0.30;;;0.30;;
7049;SDS011;22263;52.260;10.548;2023-02-26T12:52:05;0.40;;;0.40;;
7049;SDS011;22263;52.260;10.548;2023-02-26T12:54:52;0.40;;;0.40;;
7049;SDS011;22263;52.260;10.548;2023-02-26T12:57:44;0.40;;;0.40;;
7049;SDS011;22263;52.260;10.548;2023-02-26T13:00:26;0.30;;;0.30;;
7049;SDS011;22263;52.260;10.548;2023-02-26T13:03:34;0.40;;;0.40;;
7049;SDS011;22263;52.260;10.548;2023-02-26T13:06:23;0.40;;;0.40;;
7049;SDS011;22263;52.260;10.548;2023-02-26T13:09:12;0.40;;;0.40;;
7049;SDS011;22263;52.260;10.548;2023-02-26T13:11:55;0.40;;;0.40;;
7049;SDS011;22263;52.260;10.548;2023-02-26T13:14:37;0.40;;;0.40;;
7049;SDS011;22263;52.260;10.548;2023-02-26T13:17:16;0.40;;;0.40;;
7049;SDS011;22263;52.260;10.548;2023-02-26T13:19:56;0.38;;;0.38;;
7049;SDS011;22263;52.260;10.548;2023-02-26T13:22:29;0.40;;;0.40;;
7049;SDS011;22263;52.260;10.548;2023-02-26T13:25:05;0.40;;;0.40;;
7049;SDS011;22263;52.260;10.548;2023-02-26T13:27:46;0.40;;;0.40;;
7049;SDS011;22263;52.260;10.548;2023-02-26T13:30:21;0.30;;;0.30;;
7049;SDS011;22263;52.260;10.548;2023-02-26T13:32:56;0.40;;;0.40;;
7049;SDS011;22263;52.260;10.548;2023-02-26T13:35:32;0.30;;;0.30;;
7049;SDS011;22263;52.260;10.548;2023-02-26T13:38:06;0.40;;;0.40;;
7049;SDS011;22263;52.260;10.548;2023-02-26T13:40:47;0.40;;;0.40;;
7049;SDS011;22263;52.260;10.548;2023-02-26T13:43:29;0.40;;;0.40;;
7049;SDS011;22263;52.260;10.548;2023-02-26T13:46:13;0.32;;;0.32;;
7049;SDS011;22263;52.260;10.548;2023-02-26T13:48:55;0.40;;;0.40;;
7049;SDS011;22263;52.260;10.548;2023-02-26T13:51:35;0.40;;;0.40;;
7049;SDS011;22263;52.260;10.548;2023-02-26T13:54:07;0.40;;;0.40;;
7049;SDS011;22263;52.260;10.548;2023-02-26T13:57:05;0.50;;;0.50;;
7049;SDS011;22263;52.260;10.548;2023-02-26T13:59:38;0.30;;;0.30;;
7049;SDS011;22263;52.260;10.548;2023-02-26T14:05:08;0.40;;;0.40;;
7049;SDS011;22263;52.260;10.548;2023-02-26T14:08:07;0.35;;;0.35;;
7049;SDS011;22263;52.260;10.548;2023-02-26T14:10:53;0.40;;;0.40;;
7049;SDS011;22263;52.260;10.548;2023-02-26T14:13:32;0.40;;;0.40;;
7049;SDS011;22263;52.260;10.548;2023-02-26T14:16:09;0.40;;;0.40;;
7049;SDS011;22263;52.260;10.548;2023-02-26T14:18:41;0.40;;;0.40;;
7049;SDS011;22263;52.260;10.548;2023-02-26T14:24:15;0.50;;;0.50;;
7049;SDS011;22263;52.260;10.548;2023-02-26T14:26:49;0.40;;;0.40;;
7049;SDS011;22263;52.260;10.548;2023-02-26T14:29:21;0.40;;;0.40;;
7049;SDS011;22263;52.260;10.548;2023-02-26T14:32:13;0.60;;;0.60;;
7049;SDS011;22263;52.260;10.548;2023-02-26T14:34:47;0.40;;;0.40;;
7049;SDS011;22263;52.260;10.548;2023-02-26T14:37:21;0.50;;;0.50;;
7049;SDS011;22263;52.260;10.548;2023-02-26T14:39:56;0.40;;;0.40;;
7049;SDS011;22263;52.260;10.548;2023-02-26T14:42:33;0.40;;;0.40;;
7049;SDS011;22263;52.260;10.548;2023-02-26T14:45:23;0.40;;;0.40;;
7049;SDS011;22263;52.260;10.548;2023-02-26T14:47:58;0.50;;;0.50;;
7049;SDS011;22263;52.260;10.548;2023-02-26T14:50:30;0.43;;;0.43;;
7049;SDS011;22263;52.260;10.548;2023-02-26T14:53:25;0.45;;;0.45;;
7049;SDS011;22263;52.260;10.548;2023-02-26T14:56:16;0.40;;;0.40;;
7049;SDS011;22263;52.260;10.548;2023-02-26T14:58:59;0.40;;;0.40;;
7049;SDS011;22263;52.260;10.548;2023-02-26T15:01:44;0.50;;;0.50;;
7049;SDS011;22263;52.260;10.548;2023-02-26T15:07:26;0.50;;;0.50;;
7049;SDS011;22263;52.260;10.548;2023-02-26T15:10:15;0.40;;;0.40;;
7049;SDS011;22263;52.260;10.548;2023-02-26T15:13:11;0.50;;;0.50;;
7049;SDS011;22263;52.260;10.548;2023-02-26T15:15:51;0.50;;;0.50;;
7049;SDS011;22263;52.260;10.548;2023-02-26T15:18:37;0.70;;;0.70;;
7049;SDS011;22263;52.260;10.548;2023-02-26T15:21:24;0.50;;;0.50;;
7049;SDS011;22263;52.260;10.548;2023-02-26T15:24:03;0.52;;;0.52;;
7049;SDS011;22263;52.260;10.548;2023-02-26T15:26:34;0.50;;;0.50;;
7049;SDS011;22263;52.260;10.548;2023-02-26T15:29:11;0.43;;;0.43;;
7049;SDS011;22263;52.260;10.548;2023-02-26T15:31:43;0.60;;;0.60;;
7049;SDS011;22263;52.260;10.548;2023-02-26T15:34:19;0.50;;;0.50;;
7049;SDS011;22263;52.260;10.548;2023-02-26T15:36:50;0.60;;;0.60;;
7049;SDS011;22263;52.260;10.548;2023-02-26T15:39:21;0.60;;;0.60;;
7049;SDS011;22263;52.260;10.548;2023-02-26T15:41:53;0.50;;;0.50;;
7049;SDS011;22263;52.260;10.548;2023-02-26T15:44:28;0.60;;;0.60;;
7049;SDS011;22263;52.260;10.548;2023-02-26T15:47:05;0.60;;;0.60;;